createdAt,value
2022-08-20T00:01:53.669Z,1.01
2022-08-20T00:04:24.418Z,1.02
2022-08-20T00:06:54.962Z,1.02
2022-08-20T00:09:25.142Z,1.02
2022-08-20T00:11:55.417Z,1.05
2022-08-20T00:14:25.720Z,1.1
2022-08-20T00:16:56.490Z,1.12
2022-08-20T00:19:27.305Z,1.13
2022-08-20T00:21:57.567Z,1.17
2022-08-20T00:24:28.424Z,1.14
2022-08-20T00:26:59.219Z,1.11
2022-08-20T00:29:29.984Z,1.08
2022-08-20T00:32:00.831Z,1.08
2022-08-20T00:34:31.402Z,1.18
2022-08-20T00:37:01.859Z,1.14
2022-08-20T00:39:32.220Z,1.12
2022-08-20T00:42:02.361Z,1.11
2022-08-20T00:44:32.547Z,1.1
2022-08-20T00:47:03.355Z,1.11
2022-08-20T00:49:34.177Z,1.13
2022-08-20T00:52:04.421Z,1.17
2022-08-20T00:54:35.312Z,1.15
2022-08-20T00:57:06.081Z,1.2
2022-08-20T00:59:36.872Z,1.13
2022-08-20T01:02:07.162Z,0.99
2022-08-20T01:04:37.327Z,1.02
2022-08-20T01:07:07.611Z,1.09
2022-08-20T01:09:58.544Z,1.12
2022-08-20T01:12:08.213Z,1.08
2022-08-20T01:14:38.354Z,1.02
2022-08-20T01:17:08.618Z,1.05
2022-08-20T01:19:38.848Z,0.95
2022-08-20T01:22:09.664Z,1.02
2022-08-20T01:24:40.003Z,0.93
2022-08-20T01:27:10.186Z,1.04
2022-08-20T01:29:40.204Z,1.03
2022-08-20T01:32:10.907Z,0.97
2022-08-20T01:34:41.202Z,0.98
2022-08-20T01:37:11.382Z,0.92
2022-08-20T01:39:41.750Z,0.91
2022-08-20T01:42:11.849Z,0.89
2022-08-20T01:44:42.053Z,0.9
2022-08-20T01:47:12.323Z,0.89
2022-08-20T01:49:42.547Z,0.93
2022-08-20T01:52:12.810Z,1
2022-08-20T01:54:43.039Z,1
2022-08-20T01:57:13.325Z,1.03
2022-08-20T01:59:44.141Z,1.05
2022-08-20T02:02:14.920Z,1.08
2022-08-20T02:04:45.200Z,1.01
2022-08-20T02:07:15.406Z,0.99
2022-08-20T02:09:45.630Z,0.97
2022-08-20T02:12:15.909Z,0.94
2022-08-20T02:14:46.670Z,1.01
2022-08-20T02:17:16.942Z,1.04
2022-08-20T02:19:47.248Z,1.08
2022-08-20T02:22:17.418Z,1.02
2022-08-20T02:24:47.683Z,0.99
2022-08-20T02:27:17.928Z,0.98
2022-08-20T02:29:48.232Z,1.04
2022-08-20T02:32:24.694Z,1.01
2022-08-20T02:34:49.224Z,1.03
2022-08-20T02:37:19.496Z,1.01
2022-08-20T02:39:49.857Z,1.02
2022-08-20T02:42:20.610Z,1.02
2022-08-20T02:44:51.396Z,1.04
2022-08-20T02:47:22.240Z,1.07
2022-08-20T02:49:52.581Z,1.11
2022-08-20T02:52:22.777Z,1.12
2022-08-20T02:54:53.013Z,1.08
2022-08-20T02:57:23.890Z,1.07
2022-08-20T02:59:54.666Z,1.15
2022-08-20T03:02:25.506Z,1.08
2022-08-20T03:04:55.755Z,1.12
2022-08-20T03:07:26.011Z,1.11
2022-08-20T03:09:56.926Z,1.13
2022-08-20T03:12:27.669Z,1.12
2022-08-20T03:14:58.291Z,1.11
2022-08-20T03:17:29.007Z,1.06
2022-08-20T03:19:59.859Z,1.14
2022-08-20T03:22:30.066Z,1.17
2022-08-20T03:25:00.865Z,1.09
2022-08-20T03:27:36.418Z,1.1
2022-08-20T03:30:01.908Z,1.16
2022-08-20T03:32:32.730Z,1.18
2022-08-20T03:35:03.230Z,1.16
2022-08-20T03:37:33.449Z,1.11
2022-08-20T03:40:04.300Z,1.14
2022-08-20T03:42:34.533Z,1.07
2022-08-20T03:45:05.301Z,1.1
2022-08-20T03:47:35.665Z,1.13
2022-08-20T03:50:06.363Z,1.13
2022-08-20T03:52:36.621Z,1.1
2022-08-20T03:55:06.858Z,1.07
2022-08-20T03:57:37.708Z,1.06
2022-08-20T04:00:08.505Z,1.07
2022-08-20T04:02:39.340Z,1.03
2022-08-20T04:05:09.687Z,1.1
2022-08-20T04:07:39.861Z,1.12
2022-08-20T04:10:10.108Z,1.08
2022-08-20T04:12:40.415Z,1.12
2022-08-20T04:15:10.615Z,1.14
2022-08-20T04:17:40.838Z,1.04
2022-08-20T04:20:11.142Z,1.12
2022-08-20T04:22:41.991Z,1.12
2022-08-20T04:25:15.974Z,1.09
2022-08-20T04:27:42.757Z,1.07
2022-08-20T04:30:13.570Z,1.11
2022-08-20T04:32:44.353Z,1.12
2022-08-20T04:35:14.937Z,1.14
2022-08-20T04:37:45.247Z,1.1
2022-08-20T04:40:15.626Z,1.15
2022-08-20T04:42:46.104Z,1.11
2022-08-20T04:45:16.526Z,1.1
2022-08-20T04:47:46.812Z,1.11
2022-08-20T04:50:17.058Z,1.1
2022-08-20T04:52:47.640Z,1.07
2022-08-20T04:55:18.516Z,1.16
2022-08-20T04:57:49.400Z,1.15
2022-08-20T05:00:20.124Z,1.17
2022-08-20T05:02:50.965Z,1.13
2022-08-20T05:05:21.561Z,1.16
2022-08-20T05:07:52.350Z,1.12
2022-08-20T05:10:23.197Z,1.1
2022-08-20T05:12:56.765Z,1.05
2022-08-20T05:15:23.782Z,1.08
2022-08-20T05:17:54.040Z,1
2022-08-20T05:20:24.075Z,1.01
2022-08-20T05:22:54.660Z,1
2022-08-20T05:25:25.435Z,1
2022-08-20T05:27:56.394Z,1
2022-08-20T05:30:26.453Z,1.01
2022-08-20T05:32:56.644Z,1
2022-08-20T05:35:26.728Z,1.02
2022-08-20T05:37:57.046Z,1.01
2022-08-20T05:40:27.070Z,1.04
2022-08-20T05:42:57.621Z,1.1
2022-08-20T05:45:27.993Z,1.09
2022-08-20T05:47:58.890Z,1.06
2022-08-20T05:50:29.159Z,1.07
2022-08-20T05:52:59.312Z,1.15
2022-08-20T05:55:29.607Z,1.08
2022-08-20T05:57:59.873Z,1.04
2022-08-20T06:00:30.131Z,1.02
2022-08-20T06:03:00.473Z,0.99
2022-08-20T06:05:30.998Z,1.03
2022-08-20T06:08:07.691Z,1.02
2022-08-20T06:10:31.549Z,0.97
2022-08-20T06:13:01.807Z,0.96
2022-08-20T06:15:32.080Z,0.99
2022-08-20T06:18:05.176Z,0.95
2022-08-20T06:20:33.964Z,1.1
2022-08-20T06:23:04.388Z,0.95
2022-08-20T06:25:37.850Z,0.96
2022-08-20T06:28:05.085Z,0.98
2022-08-20T06:30:35.344Z,1
2022-08-20T06:33:05.913Z,0.96
2022-08-20T06:35:36.011Z,1.01
2022-08-20T06:38:06.277Z,1.02
2022-08-20T06:40:36.569Z,0.97
2022-08-20T06:43:06.803Z,1.05
2022-08-20T06:45:37.637Z,0.91
2022-08-20T06:48:07.879Z,0.93
2022-08-20T06:50:38.909Z,0.9
2022-08-20T06:53:08.805Z,0.99
2022-08-20T06:55:38.718Z,0.89
2022-08-20T06:58:15.651Z,0.89
2022-08-20T07:00:39.308Z,0.84
2022-08-20T07:03:09.602Z,0.87
2022-08-20T07:05:39.811Z,0.86
2022-08-20T07:08:10.047Z,0.86
2022-08-20T07:10:40.404Z,0.8
2022-08-20T07:13:10.600Z,0.75
2022-08-20T07:15:40.857Z,0.74
2022-08-20T07:18:11.088Z,0.7
2022-08-20T07:20:41.369Z,0.67
2022-08-20T07:23:11.601Z,0.66
2022-08-20T07:25:41.891Z,0.63
2022-08-20T07:28:12.255Z,0.64
2022-08-20T07:30:56.219Z,0.54
2022-08-20T07:33:12.665Z,0.47
2022-08-20T07:35:42.942Z,0.51
2022-08-20T07:38:13.184Z,0.53
2022-08-20T07:40:43.483Z,0.53
2022-08-20T07:43:13.727Z,0.54
2022-08-20T07:45:48.448Z,0.6
2022-08-20T07:48:14.316Z,0.55
2022-08-20T07:50:44.518Z,0.52
2022-08-20T07:53:14.761Z,0.48
2022-08-20T07:55:52.842Z,0.49
2022-08-20T07:58:15.312Z,0.53
2022-08-20T08:00:45.619Z,0.57
2022-08-20T08:03:15.814Z,0.64
2022-08-20T08:05:46.680Z,0.6
2022-08-20T08:08:16.918Z,0.56
2022-08-20T08:10:47.232Z,0.55
2022-08-20T08:13:17.469Z,0.52
2022-08-20T08:15:47.719Z,0.6
2022-08-20T08:18:17.955Z,0.56
2022-08-20T08:20:48.331Z,0.6
2022-08-20T08:23:24.753Z,0.47
2022-08-20T08:25:48.742Z,0.5
2022-08-20T08:28:18.984Z,0.46
2022-08-20T08:30:49.249Z,0.56
2022-08-20T08:33:19.469Z,0.48
2022-08-20T08:35:49.734Z,0.42
2022-08-20T08:38:19.978Z,0.44
2022-08-20T08:40:50.785Z,0.45
2022-08-20T08:43:21.322Z,0.46
2022-08-20T08:45:50.745Z,0.39
2022-08-20T08:48:20.976Z,0.44
2022-08-20T08:50:54.016Z,0.45
2022-08-20T08:53:21.476Z,0.39
2022-08-20T08:55:51.739Z,0.4
2022-08-20T08:58:21.997Z,0.37
2022-08-20T09:00:57.432Z,0.36
2022-08-20T09:03:22.499Z,0.4
2022-08-20T09:05:52.769Z,0.43
2022-08-20T09:08:22.981Z,0.42
2022-08-20T09:10:53.220Z,0.41
2022-08-20T09:13:23.559Z,0.31
2022-08-20T09:15:53.680Z,0.32
2022-08-20T09:18:23.875Z,0.38
2022-08-20T09:20:54.185Z,0.37
2022-08-20T09:23:24.331Z,0.29
2022-08-20T09:25:55.145Z,0.3
2022-08-20T09:28:25.383Z,0.32
2022-08-20T09:30:55.621Z,0.32
2022-08-20T09:33:25.787Z,0.34
2022-08-20T09:35:56.132Z,0.32
2022-08-20T09:38:26.240Z,0.28
2022-08-20T09:40:56.475Z,0.38
2022-08-20T09:43:26.760Z,0.3
2022-08-20T09:45:57.102Z,0.33
2022-08-20T09:48:29.605Z,0.41
2022-08-20T09:50:57.676Z,0.51
2022-08-20T09:53:27.911Z,0.45
2022-08-20T09:55:58.174Z,0.49
2022-08-20T09:58:28.397Z,0.49
2022-08-20T10:00:58.667Z,0.46
2022-08-20T10:03:28.885Z,0.28
2022-08-20T10:05:59.213Z,0.32
2022-08-20T10:08:29.312Z,0.26
2022-08-20T10:10:59.492Z,0.25
2022-08-20T10:13:29.696Z,0.27
2022-08-20T10:15:59.912Z,0.36
2022-08-20T10:18:30.101Z,0.41
2022-08-20T10:21:00.350Z,0.28
2022-08-20T10:23:30.551Z,0.27
2022-08-20T10:26:00.788Z,0.26
2022-08-20T10:28:31.227Z,0.29
2022-08-20T10:31:01.215Z,0.25
2022-08-20T10:33:31.485Z,0.28
2022-08-20T10:36:01.641Z,0.27
2022-08-20T10:38:31.904Z,0.23
2022-08-20T10:41:02.049Z,0.25
2022-08-20T10:43:32.267Z,0.3
2022-08-20T10:46:02.434Z,0.28
2022-08-20T10:48:32.616Z,0.27
2022-08-20T10:51:02.854Z,0.29
2022-08-20T10:53:33.028Z,0.28
2022-08-20T10:56:03.269Z,0.26
2022-08-20T10:58:37.516Z,0.3
2022-08-20T11:01:03.700Z,0.28
2022-08-20T11:03:33.902Z,0.34
2022-08-20T11:06:04.128Z,0.34
2022-08-20T11:08:36.111Z,0.29
2022-08-20T11:11:04.547Z,0.23
2022-08-20T11:13:34.736Z,0.21
2022-08-20T11:16:04.928Z,0.2
2022-08-20T11:18:35.127Z,0.18
2022-08-20T11:21:05.367Z,0.22
2022-08-20T11:23:35.547Z,0.2
2022-08-20T11:26:05.770Z,0.2
2022-08-20T11:28:36.061Z,0.22
2022-08-20T11:31:06.180Z,0.22
2022-08-20T11:33:36.359Z,0.19
2022-08-20T11:36:06.567Z,0.21
2022-08-20T11:38:36.735Z,0.21
2022-08-20T11:41:06.929Z,0.21
2022-08-20T11:43:37.196Z,0.19
2022-08-20T11:46:07.323Z,0.24
2022-08-20T11:48:37.487Z,0.21
2022-08-20T11:51:07.727Z,0.2
2022-08-20T11:53:38.033Z,0.22
2022-08-20T11:56:08.070Z,0.22
2022-08-20T11:58:38.249Z,0.18
2022-08-20T12:01:08.429Z,0.19
2022-08-20T12:03:38.599Z,0.15
2022-08-20T12:06:08.800Z,0.2
2022-08-20T12:08:38.962Z,0.18
2022-08-20T12:11:09.183Z,0.2
2022-08-20T12:13:48.117Z,0.21
2022-08-20T12:16:09.552Z,0.21
2022-08-20T12:18:39.765Z,0.22
2022-08-20T12:21:09.933Z,0.22
2022-08-20T12:23:40.073Z,0.22
2022-08-20T12:26:10.263Z,0.19
2022-08-20T12:28:40.459Z,0.18
2022-08-20T12:31:10.630Z,0.16
2022-08-20T12:33:40.794Z,0.17
2022-08-20T12:36:11.008Z,0.17
2022-08-20T12:38:41.174Z,0.17
2022-08-20T12:41:11.468Z,0.2
2022-08-20T12:43:41.566Z,0.24
2022-08-20T12:46:11.740Z,0.23
2022-08-20T12:48:42.019Z,0.15
2022-08-20T12:51:12.095Z,0.16
2022-08-20T12:53:42.260Z,0.18
2022-08-20T12:56:12.490Z,0.19
2022-08-20T12:58:42.628Z,0.19
2022-08-20T13:01:13.031Z,0.16
2022-08-20T13:03:45.313Z,0.17
2022-08-20T13:06:13.141Z,0.17
2022-08-20T13:08:43.284Z,0.15
2022-08-20T13:11:13.518Z,0.21
2022-08-20T13:13:43.618Z,0.22
2022-08-20T13:16:13.831Z,0.17
2022-08-20T13:18:43.896Z,0.15
2022-08-20T13:21:14.065Z,0.17
2022-08-20T13:23:44.311Z,0.17
2022-08-20T13:26:14.384Z,0.15
2022-08-20T13:28:44.538Z,0.16
2022-08-20T13:31:14.702Z,0.17
2022-08-20T13:33:44.881Z,0.16
2022-08-20T13:36:15.043Z,0.15
2022-08-20T13:38:45.241Z,0.16
2022-08-20T13:41:15.379Z,0.16
2022-08-20T13:43:45.541Z,0.15
2022-08-20T13:46:15.710Z,0.15
2022-08-20T13:48:45.931Z,0.15
2022-08-20T13:51:16.052Z,0.16
2022-08-20T13:53:46.209Z,0.18
2022-08-20T13:56:16.390Z,0.16
2022-08-20T13:58:46.561Z,0.16
2022-08-20T14:01:16.809Z,0.13
2022-08-20T14:03:46.874Z,0.12
2022-08-20T14:06:17.067Z,0.12
2022-08-20T14:08:47.296Z,0.15
2022-08-20T14:11:17.700Z,0.18
2022-08-20T14:13:47.544Z,0.16
2022-08-20T14:16:27.148Z,0.13
2022-08-20T14:18:51.094Z,0.16
2022-08-20T14:21:17.987Z,0.15
2022-08-20T14:23:48.226Z,0.14
2022-08-20T14:26:18.325Z,0.16
2022-08-20T14:28:48.471Z,0.16
2022-08-20T14:31:18.633Z,0.19
2022-08-20T14:33:48.798Z,0.14
2022-08-20T14:36:19.508Z,0.12
2022-08-20T14:38:49.761Z,0.11
2022-08-20T14:41:19.824Z,0.12
2022-08-20T14:43:50.056Z,0.1
2022-08-20T14:46:20.136Z,0.12
2022-08-20T14:48:52.511Z,0.15
2022-08-20T14:51:20.438Z,0.13
2022-08-20T14:53:50.591Z,0.14
2022-08-20T14:56:20.808Z,0.15
2022-08-20T14:58:50.887Z,0.16
2022-08-20T15:01:21.082Z,0.12
2022-08-20T15:03:51.202Z,0.13
2022-08-20T15:06:22.314Z,0.13
2022-08-20T15:08:51.493Z,0.14
2022-08-20T15:11:21.783Z,0.14
2022-08-20T15:13:51.847Z,0.14
2022-08-20T15:16:22.079Z,0.18
2022-08-20T15:18:52.159Z,0.15
2022-08-20T15:21:22.381Z,0.14
2022-08-20T15:23:52.501Z,0.14
2022-08-20T15:26:22.770Z,0.14
2022-08-20T15:28:53.405Z,0.13
2022-08-20T15:31:23.566Z,0.12
2022-08-20T15:33:53.714Z,0.14
2022-08-20T15:36:23.890Z,0.14
2022-08-20T15:38:54.032Z,0.15
2022-08-20T15:41:24.236Z,0.14
2022-08-20T15:43:54.400Z,0.16
2022-08-20T15:46:28.951Z,0.16
2022-08-20T15:48:54.728Z,0.16
2022-08-20T15:51:27.835Z,0.13
2022-08-20T15:53:55.199Z,0.16
2022-08-20T15:56:25.375Z,0.16
2022-08-20T15:58:55.459Z,0.17
2022-08-20T16:01:25.981Z,0.17
2022-08-20T16:03:55.771Z,0.13
2022-08-20T16:06:25.946Z,0.13
2022-08-20T16:08:56.105Z,0.14
2022-08-20T16:11:26.284Z,0.17
2022-08-20T16:13:57.484Z,0.14
2022-08-20T16:16:26.636Z,0.14
2022-08-20T16:18:56.791Z,0.16
2022-08-20T16:21:26.981Z,0.17
2022-08-20T16:23:57.257Z,0.13
2022-08-20T16:26:27.323Z,0.14
2022-08-20T16:28:57.509Z,0.15
2022-08-20T16:31:27.683Z,0.17
2022-08-20T16:33:57.923Z,0.14
2022-08-20T16:36:28.145Z,0.15
2022-08-20T16:38:58.194Z,0.15
2022-08-20T16:41:28.386Z,0.14
2022-08-20T16:43:58.570Z,0.12
2022-08-20T16:46:28.732Z,0.14
2022-08-20T16:48:58.962Z,0.14
2022-08-20T16:51:29.075Z,0.13
2022-08-20T16:53:59.241Z,0.13
2022-08-20T16:56:29.454Z,0.12
2022-08-20T16:58:59.596Z,0.14
2022-08-20T17:01:29.885Z,0.15
2022-08-20T17:04:00.009Z,0.14
2022-08-20T17:06:30.107Z,0.14
2022-08-20T17:09:00.462Z,0.16
2022-08-20T17:11:30.456Z,0.14
2022-08-20T17:14:00.709Z,0.16
2022-08-20T17:16:30.790Z,0.13
2022-08-20T17:19:00.939Z,0.14
2022-08-20T17:21:31.139Z,0.13
2022-08-20T17:24:01.273Z,0.13
2022-08-20T17:26:31.471Z,0.12
2022-08-20T17:29:01.657Z,0.13
2022-08-20T17:31:38.850Z,0.17
2022-08-20T17:34:01.976Z,0.18
2022-08-20T17:36:32.169Z,0.2
2022-08-20T17:39:02.325Z,0.16
2022-08-20T17:41:32.524Z,0.18
2022-08-20T17:44:02.755Z,0.18
2022-08-20T17:46:32.880Z,0.2
2022-08-20T17:49:03.118Z,0.18
2022-08-20T17:51:33.233Z,0.18
2022-08-20T17:54:03.397Z,0.19
2022-08-20T17:56:33.593Z,0.18
2022-08-20T17:59:03.774Z,0.18
2022-08-20T18:01:34.044Z,0.15
2022-08-20T18:04:04.127Z,0.17
2022-08-20T18:06:34.336Z,0.17
2022-08-20T18:09:04.505Z,0.18
2022-08-20T18:11:34.707Z,0.23
2022-08-20T18:14:04.897Z,0.29
2022-08-20T18:16:35.060Z,0.33
2022-08-20T18:19:05.212Z,0.38
2022-08-20T18:21:35.424Z,0.35
2022-08-20T18:24:05.586Z,0.32
2022-08-20T18:26:35.804Z,0.32
2022-08-20T18:29:06.072Z,0.31
2022-08-20T18:31:36.175Z,0.39
2022-08-20T18:34:06.327Z,0.36
2022-08-20T18:36:36.551Z,0.35
2022-08-20T18:39:06.809Z,0.37
2022-08-20T18:41:36.928Z,0.37
2022-08-20T18:44:07.127Z,0.37
2022-08-20T18:46:37.336Z,0.33
2022-08-20T18:49:07.507Z,0.37
2022-08-20T18:51:37.731Z,0.39
2022-08-20T18:54:08.009Z,0.4
2022-08-20T18:56:38.330Z,0.42
2022-08-20T18:59:08.344Z,0.42
2022-08-20T19:01:38.683Z,0.43
2022-08-20T19:04:08.780Z,0.41
2022-08-20T19:06:39.043Z,0.48
2022-08-20T19:09:09.160Z,0.48
2022-08-20T19:11:39.489Z,0.48
2022-08-20T19:14:09.628Z,0.45
2022-08-20T19:16:39.843Z,0.4
2022-08-20T19:19:10.163Z,0.46
2022-08-20T19:21:40.280Z,0.48
2022-08-20T19:24:10.485Z,0.5
2022-08-20T19:26:40.823Z,0.55
2022-08-20T19:29:10.964Z,0.63
2022-08-20T19:31:41.186Z,0.67
2022-08-20T19:34:20.005Z,0.67
2022-08-20T19:36:42.213Z,0.7
2022-08-20T19:39:12.433Z,0.69
2022-08-20T19:41:42.650Z,0.69
2022-08-20T19:44:12.877Z,0.73
2022-08-20T19:46:43.080Z,0.77
2022-08-20T19:49:13.290Z,0.79
2022-08-20T19:51:45.863Z,0.81
2022-08-20T19:54:13.773Z,0.84
2022-08-20T19:56:43.974Z,0.85
2022-08-20T19:59:14.228Z,0.88
2022-08-20T20:01:44.486Z,0.95
2022-08-20T20:04:14.625Z,0.96
2022-08-20T20:06:44.881Z,1.01
2022-08-20T20:09:15.213Z,1.01
2022-08-20T20:11:45.336Z,1.06
2022-08-20T20:14:15.687Z,1.08
2022-08-20T20:16:45.815Z,1.12
2022-08-20T20:19:26.397Z,1.11
2022-08-20T20:21:46.283Z,1.09
2022-08-20T20:24:16.543Z,1.06
2022-08-20T20:26:46.740Z,1.04
2022-08-20T20:29:17.021Z,1.04
2022-08-20T20:31:47.197Z,1.04
2022-08-20T20:34:17.414Z,1.04
2022-08-20T20:36:47.689Z,0.59
2022-08-20T20:39:17.925Z,0.5
2022-08-20T20:41:48.213Z,0.46
2022-08-20T20:44:18.564Z,0.45
2022-08-20T20:46:48.859Z,0.4
2022-08-20T20:49:19.702Z,0.4
2022-08-20T20:51:49.867Z,0.42
2022-08-20T20:54:20.137Z,0.44
2022-08-20T20:56:50.437Z,0.43
2022-08-20T20:59:20.718Z,0.45
2022-08-20T21:01:51.088Z,0.44
2022-08-20T21:04:21.269Z,0.45
2022-08-20T21:06:51.537Z,0.46
2022-08-20T21:09:21.798Z,0.42
2022-08-20T21:11:52.084Z,0.41
2022-08-20T21:14:22.367Z,0.42
2022-08-20T21:16:52.630Z,0.45
2022-08-20T21:19:22.872Z,0.42
2022-08-20T21:21:53.158Z,0.47
2022-08-20T21:24:23.416Z,0.48
2022-08-20T21:26:53.687Z,0.51
2022-08-20T21:29:24.005Z,0.47
2022-08-20T21:31:54.227Z,0.5
2022-08-20T21:34:24.466Z,0.47
2022-08-20T21:36:54.762Z,0.47
2022-08-20T21:39:25.017Z,0.5
2022-08-20T21:41:55.306Z,0.52
2022-08-20T21:44:25.580Z,0.54
2022-08-20T21:46:55.867Z,0.57
2022-08-20T21:49:29.041Z,0.57
2022-08-20T21:51:56.406Z,0.55
2022-08-20T21:54:26.709Z,0.53
2022-08-20T21:56:56.963Z,0.49
2022-08-20T21:59:27.273Z,0.5
2022-08-20T22:01:57.288Z,0.54
2022-08-20T22:04:27.570Z,0.55
2022-08-20T22:06:58.450Z,0.58
2022-08-20T22:09:28.739Z,0.61
2022-08-20T22:12:00.893Z,0.58
2022-08-20T22:14:29.357Z,0.54
2022-08-20T22:16:59.646Z,0.52
2022-08-20T22:19:29.946Z,0.5
2022-08-20T22:22:00.266Z,0.52
2022-08-20T22:24:30.562Z,0.53
2022-08-20T22:27:01.447Z,0.51
2022-08-20T22:29:31.757Z,0.5
2022-08-20T22:32:02.042Z,0.51
2022-08-20T22:34:32.963Z,0.54
2022-08-20T22:37:02.648Z,0.52
2022-08-20T22:39:32.945Z,0.52
2022-08-20T22:42:03.856Z,0.52
2022-08-20T22:44:34.195Z,0.52
2022-08-20T22:47:05.101Z,0.51
2022-08-20T22:49:35.408Z,0.51
2022-08-20T22:52:05.784Z,0.53
2022-08-20T22:54:36.116Z,0.51
2022-08-20T22:57:06.150Z,0.53
2022-08-20T22:59:41.381Z,0.56
2022-08-20T23:02:08.557Z,0.57
2022-08-20T23:04:37.857Z,0.55
2022-08-20T23:07:07.875Z,0.61
2022-08-20T23:09:38.219Z,0.61
2022-08-20T23:12:08.449Z,0.59
2022-08-20T23:14:38.752Z,0.57
2022-08-20T23:17:13.099Z,0.64
2022-08-20T23:19:39.689Z,0.62
2022-08-20T23:22:10.075Z,0.57
2022-08-20T23:24:40.219Z,0.56
2022-08-20T23:27:10.356Z,0.54
2022-08-20T23:29:40.819Z,0.55
2022-08-20T23:32:11.195Z,0.56
2022-08-20T23:34:41.297Z,0.63
2022-08-20T23:37:11.633Z,0.68
2022-08-20T23:39:41.967Z,0.65
2022-08-20T23:42:12.259Z,0.65
2022-08-20T23:44:42.539Z,0.65
2022-08-20T23:47:12.848Z,0.68
2022-08-20T23:49:43.147Z,0.66
2022-08-20T23:52:13.459Z,0.69
2022-08-20T23:54:43.830Z,0.72
2022-08-20T23:57:14.084Z,0.75
2022-08-20T23:59:44.424Z,0.74
